createdAt,value
2023-02-14T00:01:45.495Z,53.61
2023-02-14T00:04:13.954Z,53.51
2023-02-14T00:06:43.014Z,53.69
2023-02-14T00:09:14.601Z,53.59
2023-02-14T00:11:43.116Z,53.37
2023-02-14T00:14:29.792Z,53.61
2023-02-14T00:16:59.659Z,53.65
2023-02-14T00:19:28.801Z,53.67
2023-02-14T00:21:57.011Z,53.49
2023-02-14T00:24:27.773Z,53.48
2023-02-14T00:26:56.211Z,53.60
2023-02-14T00:29:27.337Z,53.64
2023-02-14T00:31:55.802Z,53.53
2023-02-14T00:34:26.051Z,53.39
2023-02-14T00:36:54.417Z,53.36
2023-02-14T00:39:22.772Z,53.35
2023-02-14T00:41:51.017Z,53.54
2023-02-14T00:44:20.353Z,53.55
2023-02-14T00:46:48.615Z,53.47
2023-02-14T00:49:16.921Z,53.73
2023-02-14T00:51:46.640Z,53.75
2023-02-14T00:54:14.937Z,53.70
2023-02-14T00:56:43.278Z,53.48
2023-02-14T00:59:12.666Z,54.00
2023-02-14T01:01:41.526Z,53.63
2023-02-14T01:04:09.816Z,53.67
2023-02-14T01:06:38.203Z,53.61
2023-02-14T01:09:07.840Z,53.92
2023-02-14T01:11:36.274Z,53.65
2023-02-14T01:14:04.773Z,53.87
2023-02-14T01:16:33.044Z,53.92
2023-02-14T01:19:02.260Z,53.66
2023-02-14T01:21:32.909Z,54.12
2023-02-14T01:24:05.487Z,54.05
2023-02-14T01:26:36.638Z,54.10
2023-02-14T01:29:05.736Z,54.04
2023-02-14T01:31:35.874Z,53.79
2023-02-14T01:34:04.826Z,54.01
2023-02-14T01:36:37.301Z,54.02
2023-02-14T01:39:09.604Z,53.79
2023-02-14T01:41:41.423Z,53.98
2023-02-14T01:44:55.716Z,53.98
2023-02-14T01:47:24.779Z,54.08
2023-02-14T01:49:58.529Z,54.16
2023-02-14T01:52:30.663Z,53.99
2023-02-14T01:55:04.638Z,53.95
2023-02-14T01:57:40.689Z,54.31
2023-02-14T02:00:28.267Z,54.27
2023-02-14T02:02:58.196Z,54.07
2023-02-14T02:05:27.456Z,54.43
2023-02-14T02:08:00.393Z,54.18
2023-02-14T02:10:28.853Z,54.07
2023-02-14T02:13:04.495Z,54.37
2023-02-14T02:15:41.868Z,54.51
2023-02-14T02:18:18.783Z,54.48
2023-02-14T02:21:42.866Z,54.33
2023-02-14T02:24:22.902Z,54.51
2023-02-14T02:27:43.094Z,54.67
2023-02-14T02:30:37.527Z,54.55
2023-02-14T02:34:08.079Z,54.50
2023-02-14T02:36:57.831Z,54.92
2023-02-14T02:39:51.099Z,54.74
2023-02-14T02:42:30.907Z,54.95
2023-02-14T02:45:09.779Z,54.77
2023-02-14T02:47:45.406Z,54.66
2023-02-14T02:50:41.817Z,54.75
2023-02-14T02:53:20.954Z,54.71
2023-02-14T02:56:12.888Z,54.60
2023-02-14T02:58:46.184Z,54.68
2023-02-14T03:01:19.992Z,54.68
2023-02-14T03:04:09.006Z,55.07
2023-02-14T03:06:37.326Z,54.89
2023-02-14T03:09:33.610Z,54.85
2023-02-14T03:12:14.032Z,54.89
2023-02-14T03:14:51.939Z,54.77
2023-02-14T03:17:48.558Z,55.00
2023-02-14T03:20:22.264Z,54.90
2023-02-14T03:22:59.705Z,55.05
2023-02-14T03:25:40.982Z,54.96
2023-02-14T03:28:16.701Z,55.19
2023-02-14T03:30:55.118Z,54.70
2023-02-14T03:33:31.741Z,54.99
2023-02-14T03:36:05.488Z,54.82
2023-02-14T03:38:42.218Z,55.17
2023-02-14T03:41:16.592Z,55.20
2023-02-14T03:43:50.508Z,55.23
2023-02-14T03:46:25.204Z,55.20
2023-02-14T03:48:57.778Z,55.11
2023-02-14T03:51:27.618Z,54.86
2023-02-14T03:53:59.102Z,54.93
2023-02-14T03:56:35.944Z,54.93
2023-02-14T03:59:10.441Z,54.97
2023-02-14T04:01:46.651Z,55.11
2023-02-14T04:04:19.214Z,54.93
2023-02-14T04:06:47.464Z,54.92
2023-02-14T04:09:15.706Z,54.95
2023-02-14T04:11:46.478Z,55.16
2023-02-14T04:14:14.729Z,54.96
2023-02-14T04:16:56.929Z,55.13
2023-02-14T04:19:25.143Z,55.07
2023-02-14T04:21:54.386Z,55.04
2023-02-14T04:24:22.669Z,55.18
2023-02-14T04:27:12.253Z,55.19
2023-02-14T04:29:43.516Z,55.03
2023-02-14T04:32:14.263Z,55.14
2023-02-14T04:34:42.780Z,55.39
2023-02-14T04:37:11.210Z,55.35
2023-02-14T04:39:39.873Z,55.15
2023-02-14T04:42:09.947Z,55.33
2023-02-14T04:44:39.111Z,55.27
2023-02-14T04:47:08.515Z,54.94
2023-02-14T04:49:37.345Z,55.18
2023-02-14T04:52:06.109Z,54.95
2023-02-14T04:54:35.051Z,55.02
2023-02-14T04:57:03.314Z,55.32
2023-02-14T04:59:32.970Z,55.00
2023-02-14T05:02:01.202Z,55.36
2023-02-14T05:04:29.432Z,55.35
2023-02-14T05:06:57.696Z,55.13
2023-02-14T05:09:25.966Z,54.92
2023-02-14T05:11:54.178Z,55.12
2023-02-14T05:14:22.764Z,54.86
2023-02-14T05:16:52.372Z,54.91
2023-02-14T05:19:20.856Z,55.09
2023-02-14T05:21:49.089Z,55.23
2023-02-14T05:24:17.469Z,55.25
2023-02-14T05:26:45.803Z,54.96
2023-02-14T05:29:14.037Z,54.92
2023-02-14T05:31:42.354Z,55.16
2023-02-14T05:34:12.046Z,55.01
2023-02-14T05:36:40.308Z,54.94
2023-02-14T05:39:08.550Z,55.01
2023-02-14T05:44:05.110Z,55.20
2023-02-14T05:46:33.348Z,54.92
2023-02-14T05:49:01.569Z,55.21
2023-02-14T05:51:31.187Z,55.27
2023-02-14T05:54:01.323Z,55.39
2023-02-14T05:56:29.619Z,55.43
2023-02-14T05:58:57.842Z,55.35
2023-02-14T06:01:26.062Z,55.17
2023-02-14T06:03:54.338Z,55.26
2023-02-14T06:06:22.552Z,55.45
2023-02-14T06:08:52.153Z,55.21
2023-02-14T06:11:20.404Z,55.18
2023-02-14T06:13:48.665Z,55.34
2023-02-14T06:16:17.005Z,55.21
2023-02-14T06:18:45.315Z,55.33
2023-02-14T06:21:13.561Z,55.54
2023-02-14T06:23:41.859Z,55.10
2023-02-14T06:26:11.465Z,55.23
2023-02-14T06:28:39.672Z,55.16
2023-02-14T06:31:08.011Z,55.18
2023-02-14T06:33:36.287Z,55.11
2023-02-14T06:36:04.860Z,55.43
2023-02-14T06:38:33.125Z,55.28
2023-02-14T06:41:05.431Z,55.61
2023-02-14T06:43:35.870Z,55.67
2023-02-14T06:46:05.037Z,55.31
2023-02-14T06:48:33.405Z,55.32
2023-02-14T06:51:01.932Z,55.14
2023-02-14T06:53:30.540Z,55.19
2023-02-14T06:55:58.796Z,55.49
2023-02-14T06:58:27.164Z,55.60
2023-02-14T07:00:58.740Z,55.33
2023-02-14T07:03:27.701Z,55.51
2023-02-14T07:05:56.200Z,55.35
2023-02-14T07:08:26.222Z,55.50
2023-02-14T07:10:58.204Z,55.66
2023-02-14T07:13:27.097Z,55.41
2023-02-14T07:15:55.447Z,55.36
2023-02-14T07:18:25.120Z,55.66
2023-02-14T07:20:53.464Z,55.62
2023-02-14T07:23:21.773Z,55.40
2023-02-14T07:25:50.039Z,55.51
2023-02-14T07:28:18.262Z,55.75
2023-02-14T07:30:46.705Z,55.66
2023-02-14T07:33:15.334Z,55.69
2023-02-14T07:35:45.001Z,55.53
2023-02-14T07:38:13.273Z,55.70
2023-02-14T07:40:41.577Z,55.53
2023-02-14T07:43:09.829Z,55.54
2023-02-14T07:45:38.093Z,55.41
2023-02-14T07:48:07.323Z,55.71
2023-02-14T07:50:35.542Z,55.47
2023-02-14T07:53:05.098Z,55.53
2023-02-14T07:55:33.345Z,55.45
2023-02-14T07:58:01.736Z,55.72
2023-02-14T08:00:30.132Z,55.40
2023-02-14T08:02:58.374Z,55.88
2023-02-14T08:05:26.625Z,55.51
2023-02-14T08:07:54.929Z,55.41
2023-02-14T08:10:24.593Z,55.42
2023-02-14T08:13:02.088Z,55.54
2023-02-14T08:15:50.603Z,55.60
2023-02-14T08:18:20.119Z,55.82
2023-02-14T08:20:49.825Z,55.81
2023-02-14T08:23:19.560Z,55.88
2023-02-14T08:25:49.956Z,55.59
2023-02-14T08:28:18.474Z,55.95
2023-02-14T08:30:47.312Z,55.97
2023-02-14T08:33:15.890Z,55.95
2023-02-14T08:35:44.180Z,55.62
2023-02-14T08:38:12.760Z,55.59
2023-02-14T08:40:41.624Z,56.02
2023-02-14T08:43:11.905Z,55.78
2023-02-14T08:45:40.680Z,55.73
2023-02-14T08:48:12.342Z,55.98
2023-02-14T08:50:41.846Z,55.66
2023-02-14T08:53:11.226Z,55.99
2023-02-14T08:55:40.568Z,55.94
2023-02-14T08:58:10.613Z,55.92
2023-02-14T09:00:39.187Z,56.10
2023-02-14T09:03:07.754Z,56.04
2023-02-14T09:05:36.318Z,55.63
2023-02-14T09:08:05.141Z,56.00
2023-02-14T09:10:33.368Z,55.81
2023-02-14T09:13:01.616Z,55.99
2023-02-14T09:15:31.610Z,55.91
2023-02-14T09:17:59.887Z,55.89
2023-02-14T09:20:28.145Z,55.80
2023-02-14T09:22:57.402Z,55.50
2023-02-14T09:25:25.646Z,55.65
2023-02-14T09:27:53.895Z,55.74
2023-02-14T09:30:22.274Z,55.37
2023-02-14T09:32:53.726Z,55.88
2023-02-14T09:35:22.124Z,55.92
2023-02-14T09:38:08.050Z,55.74
2023-02-14T09:40:36.364Z,56.03
2023-02-14T09:43:11.177Z,56.10
2023-02-14T09:45:40.729Z,56.02
2023-02-14T09:48:26.615Z,55.79
2023-02-14T09:51:00.180Z,55.97
2023-02-14T09:53:31.292Z,56.14
2023-02-14T09:56:08.908Z,55.58
2023-02-14T09:58:44.974Z,55.72
2023-02-14T10:01:21.271Z,56.18
2023-02-14T10:04:17.738Z,55.97
2023-02-14T10:06:51.961Z,55.87
2023-02-14T10:09:49.088Z,56.15
2023-02-14T10:12:25.434Z,55.97
2023-02-14T10:14:56.982Z,55.82
2023-02-14T10:17:37.692Z,56.02
2023-02-14T10:20:18.483Z,55.73
2023-02-14T10:22:53.623Z,55.86
2023-02-14T10:25:27.684Z,55.70
2023-02-14T10:27:59.644Z,55.72
2023-02-14T10:30:28.148Z,55.63
2023-02-14T10:33:05.506Z,55.73
2023-02-14T10:35:44.508Z,55.66
2023-02-14T10:38:27.375Z,55.46
2023-02-14T10:41:30.636Z,55.92
2023-02-14T10:44:13.564Z,56.16
2023-02-14T10:46:51.140Z,56.22
2023-02-14T10:49:35.365Z,56.14
2023-02-14T10:52:15.706Z,56.19
2023-02-14T10:54:47.685Z,56.16
2023-02-14T10:57:21.892Z,55.89
2023-02-14T10:59:54.714Z,56.04
2023-02-14T11:02:32.145Z,55.78
2023-02-14T11:05:01.447Z,55.97
2023-02-14T11:07:31.180Z,55.79
2023-02-14T11:09:59.455Z,55.90
2023-02-14T11:12:37.521Z,55.88
2023-02-14T11:15:27.535Z,55.86
2023-02-14T11:18:22.868Z,55.83
2023-02-14T11:21:03.219Z,55.58
2023-02-14T11:23:38.916Z,55.61
2023-02-14T11:26:15.347Z,55.64
2023-02-14T11:28:54.183Z,55.25
2023-02-14T11:31:34.676Z,55.57
2023-02-14T11:34:06.993Z,55.43
2023-02-14T11:36:43.056Z,55.34
2023-02-14T11:39:28.774Z,55.48
2023-02-14T11:42:01.293Z,55.05
2023-02-14T11:44:33.212Z,55.50
2023-02-14T11:47:21.541Z,55.24
2023-02-14T11:49:58.510Z,55.45
2023-02-14T11:52:29.667Z,55.63
2023-02-14T11:55:00.398Z,55.22
2023-02-14T11:57:33.526Z,55.55
2023-02-14T12:00:05.962Z,55.38
2023-02-14T12:02:39.656Z,55.25
2023-02-14T12:05:19.265Z,55.19
2023-02-14T12:07:49.698Z,55.63
2023-02-14T12:10:28.226Z,55.30
2023-02-14T12:13:01.218Z,55.29
2023-02-14T12:15:37.894Z,55.46
2023-02-14T12:18:54.292Z,55.37
2023-02-14T12:21:41.065Z,55.47
2023-02-14T12:24:21.820Z,55.34
2023-02-14T12:27:02.027Z,55.41
2023-02-14T12:29:37.611Z,55.41
2023-02-14T12:32:20.222Z,55.22
2023-02-14T12:34:49.305Z,55.42
2023-02-14T12:37:35.674Z,55.24
2023-02-14T12:40:23.827Z,55.38
2023-02-14T12:43:40.882Z,55.50
2023-02-14T12:46:23.170Z,55.17
2023-02-14T12:49:13.791Z,55.40
2023-02-14T12:51:50.478Z,55.18
2023-02-14T12:54:41.960Z,55.07
2023-02-14T12:57:25.231Z,54.83
2023-02-14T13:00:05.453Z,55.10
2023-02-14T13:03:11.660Z,55.06
2023-02-14T13:05:51.755Z,54.99
2023-02-14T13:08:38.916Z,54.99
2023-02-14T13:11:16.704Z,54.81
2023-02-14T13:13:57.143Z,54.71
2023-02-14T13:16:35.220Z,54.95
2023-02-14T13:19:16.048Z,54.63
2023-02-14T13:21:45.205Z,54.75
2023-02-14T13:24:19.409Z,54.67
2023-02-14T13:26:53.867Z,54.62
2023-02-14T13:29:25.264Z,54.33
2023-02-14T13:31:59.930Z,54.56
2023-02-14T13:34:32.712Z,54.25
2023-02-14T13:37:03.856Z,54.32
2023-02-14T13:39:38.653Z,54.38
2023-02-14T13:42:08.539Z,54.14
2023-02-14T13:44:49.021Z,54.08
2023-02-14T13:47:21.469Z,54.12
2023-02-14T13:49:54.781Z,54.04
2023-02-14T13:52:43.973Z,54.13
2023-02-14T13:55:19.492Z,54.12
2023-02-14T13:57:48.454Z,54.36
2023-02-14T14:00:41.434Z,54.21
2023-02-14T14:03:15.948Z,54.43
2023-02-14T14:06:06.678Z,54.01
2023-02-14T14:08:44.298Z,54.15
2023-02-14T14:11:56.955Z,54.16
2023-02-14T14:14:37.278Z,54.04
2023-02-14T14:17:28.531Z,54.04
2023-02-14T14:19:58.814Z,53.96
2023-02-14T14:22:28.267Z,54.24
2023-02-14T14:25:01.018Z,53.77
2023-02-14T14:27:34.117Z,54.10
2023-02-14T14:30:05.100Z,53.76
2023-02-14T14:32:36.327Z,53.99
2023-02-14T14:35:18.850Z,53.76
2023-02-14T14:37:50.735Z,53.80
2023-02-14T14:40:27.803Z,53.80
2023-02-14T14:43:01.121Z,53.78
2023-02-14T14:45:32.437Z,53.65
2023-02-14T14:48:09.985Z,53.71
2023-02-14T14:50:39.997Z,53.64
2023-02-14T14:53:19.111Z,53.75
2023-02-14T14:55:51.954Z,53.56
2023-02-14T14:58:36.077Z,53.81
2023-02-14T15:01:05.909Z,53.50
2023-02-14T15:03:34.971Z,53.92
2023-02-14T15:06:17.270Z,53.64
2023-02-14T15:08:48.084Z,53.75
2023-02-14T15:11:35.128Z,53.85
2023-02-14T15:14:05.732Z,53.46
2023-02-14T15:16:48.639Z,53.32
2023-02-14T15:19:23.536Z,53.59
2023-02-14T15:21:53.449Z,53.54
2023-02-14T15:24:21.839Z,53.60
2023-02-14T15:26:53.402Z,53.29
2023-02-14T15:29:25.204Z,53.75
2023-02-14T15:31:53.930Z,53.63
2023-02-14T15:34:26.186Z,53.71
2023-02-14T15:36:59.183Z,53.75
2023-02-14T15:39:34.683Z,53.40
2023-02-14T15:42:03.015Z,53.45
2023-02-14T15:44:31.463Z,53.31
2023-02-14T15:47:05.581Z,53.45
2023-02-14T15:49:37.617Z,53.52
2023-02-14T15:52:07.984Z,53.47
2023-02-14T15:54:39.820Z,53.11
2023-02-14T15:57:20.077Z,53.46
2023-02-14T15:59:48.897Z,53.37
2023-02-14T16:02:30.197Z,53.34
2023-02-14T16:05:07.230Z,53.51
2023-02-14T16:07:36.842Z,53.16
2023-02-14T16:10:25.362Z,53.50
2023-02-14T16:13:00.392Z,53.43
2023-02-14T16:15:30.153Z,53.68
2023-02-14T16:17:59.034Z,53.60
2023-02-14T16:20:41.967Z,53.57
2023-02-14T16:23:24.037Z,53.70
2023-02-14T16:25:53.104Z,53.68
2023-02-14T16:28:22.942Z,53.49
2023-02-14T16:30:56.640Z,53.66
2023-02-14T16:33:28.792Z,53.78
2023-02-14T16:36:03.733Z,53.70
2023-02-14T16:38:38.071Z,53.95
2023-02-14T16:41:07.189Z,54.10
2023-02-14T16:43:35.476Z,53.94
2023-02-14T16:46:03.742Z,54.29
2023-02-14T16:48:32.021Z,54.22
2023-02-14T16:51:00.511Z,54.30
2023-02-14T16:53:29.971Z,54.31
2023-02-14T16:56:00.098Z,54.39
2023-02-14T16:58:34.324Z,54.19
2023-02-14T17:01:03.010Z,53.85
2023-02-14T17:03:31.592Z,53.96
2023-02-14T17:06:01.496Z,54.05
2023-02-14T17:08:30.360Z,54.28
2023-02-14T17:11:02.040Z,54.30
2023-02-14T17:13:33.671Z,54.07
2023-02-14T17:16:02.599Z,54.04
2023-02-14T17:18:34.424Z,54.04
2023-02-14T17:21:03.253Z,53.81
2023-02-14T17:23:31.690Z,54.16
2023-02-14T17:26:01.377Z,54.02
2023-02-14T17:28:30.039Z,54.09
2023-02-14T17:31:00.569Z,54.26
2023-02-14T17:33:30.487Z,54.15
2023-02-14T17:36:06.665Z,54.18
2023-02-14T17:38:35.937Z,54.25
2023-02-14T17:41:14.719Z,54.01
2023-02-14T17:43:43.093Z,54.20
2023-02-14T17:46:11.539Z,54.22
2023-02-14T17:48:39.804Z,53.93
2023-02-14T17:51:10.275Z,53.72
2023-02-14T17:53:41.447Z,54.21
2023-02-14T17:56:14.652Z,54.43
2023-02-14T17:58:42.951Z,54.47
2023-02-14T18:01:13.146Z,54.15
2023-02-14T18:03:42.116Z,54.23
2023-02-14T18:06:11.990Z,54.56
2023-02-14T18:08:43.300Z,54.36
2023-02-14T18:11:14.589Z,54.63
2023-02-14T18:13:43.217Z,54.68
2023-02-14T18:16:14.969Z,54.48
2023-02-14T18:18:43.373Z,54.37
2023-02-14T18:21:14.888Z,54.21
2023-02-14T18:23:43.817Z,54.60
2023-02-14T18:26:16.872Z,54.29
2023-02-14T18:28:45.496Z,54.54
2023-02-14T18:31:16.594Z,54.29
2023-02-14T18:33:46.025Z,54.31
2023-02-14T18:36:16.917Z,54.38
2023-02-14T18:38:47.154Z,54.35
2023-02-14T18:41:19.933Z,54.34
2023-02-14T18:43:49.092Z,54.41
2023-02-14T18:46:19.765Z,54.41
2023-02-14T18:48:48.588Z,54.90
2023-02-14T18:51:19.139Z,54.52
2023-02-14T18:53:48.333Z,54.77
2023-02-14T18:56:21.045Z,55.00
2023-02-14T18:58:52.860Z,54.95
2023-02-14T19:01:24.638Z,55.01
2023-02-14T19:03:54.609Z,54.95
2023-02-14T19:06:23.377Z,55.22
2023-02-14T19:08:51.648Z,54.83
2023-02-14T19:11:23.800Z,55.06
2023-02-14T19:13:55.009Z,55.14
2023-02-14T19:16:27.553Z,55.03
2023-02-14T19:18:56.341Z,55.01
2023-02-14T19:21:27.133Z,55.02
2023-02-14T19:23:57.565Z,54.96
2023-02-14T19:26:30.242Z,55.03
2023-02-14T19:29:02.705Z,54.96
2023-02-14T19:31:31.551Z,55.16
2023-02-14T19:33:59.886Z,54.83
2023-02-14T19:36:28.161Z,54.84
2023-02-14T19:38:58.145Z,55.08
2023-02-14T19:41:31.650Z,55.02
2023-02-14T19:44:00.622Z,54.89
2023-02-14T19:46:30.554Z,55.02
2023-02-14T19:48:59.988Z,54.86
2023-02-14T19:51:30.253Z,54.90
2023-02-14T19:54:01.194Z,54.95
2023-02-14T19:56:34.534Z,55.17
2023-02-14T19:59:07.736Z,55.20
2023-02-14T20:01:39.509Z,54.88
2023-02-14T20:04:10.978Z,55.20
2023-02-14T20:06:39.797Z,54.85
2023-02-14T20:09:09.260Z,54.68
2023-02-14T20:11:42.383Z,54.72
2023-02-14T20:14:10.655Z,54.66
2023-02-14T20:16:39.347Z,54.84
2023-02-14T20:19:12.080Z,54.68
2023-02-14T20:21:42.638Z,54.89
2023-02-14T20:24:12.331Z,55.21
2023-02-14T20:26:42.306Z,55.14
2023-02-14T20:29:11.703Z,55.03
2023-02-14T20:31:43.750Z,55.21
2023-02-14T20:34:12.861Z,55.35
2023-02-14T20:36:42.163Z,55.00
2023-02-14T20:39:13.807Z,55.07
2023-02-14T20:41:48.335Z,54.97
2023-02-14T20:44:19.778Z,55.07
2023-02-14T20:46:49.205Z,55.24
2023-02-14T20:49:17.483Z,55.09
2023-02-14T20:51:46.525Z,55.03
2023-02-14T20:54:14.867Z,54.76
2023-02-14T20:56:44.457Z,55.22
2023-02-14T20:59:12.994Z,54.69
2023-02-14T21:01:41.659Z,55.02
2023-02-14T21:04:10.129Z,55.04
2023-02-14T21:06:39.967Z,54.68
2023-02-14T21:09:08.646Z,54.70
2023-02-14T21:11:36.938Z,55.02
2023-02-14T21:14:06.575Z,55.22
2023-02-14T21:16:34.858Z,55.24
2023-02-14T21:19:04.182Z,55.10
2023-02-14T21:21:36.115Z,54.82
2023-02-14T21:24:07.980Z,54.77
2023-02-14T21:26:36.383Z,55.17
2023-02-14T21:29:07.158Z,55.12
2023-02-14T21:31:35.845Z,54.95
2023-02-14T21:34:04.955Z,55.26
2023-02-14T21:36:36.391Z,54.93
2023-02-14T21:39:06.725Z,54.96
2023-02-14T21:41:36.740Z,54.90
2023-02-14T21:44:07.509Z,54.98
2023-02-14T21:46:38.878Z,54.92
2023-02-14T21:49:25.372Z,55.22
2023-02-14T21:51:53.715Z,55.17
2023-02-14T21:54:22.005Z,54.89
2023-02-14T21:56:50.395Z,54.80
2023-02-14T21:59:20.012Z,55.06
2023-02-14T22:01:48.282Z,55.02
2023-02-14T22:04:16.552Z,54.90
2023-02-14T22:06:44.865Z,54.95
2023-02-14T22:09:17.414Z,55.07
2023-02-14T22:11:47.531Z,54.95
2023-02-14T22:14:16.172Z,54.92
2023-02-14T22:16:45.780Z,55.00
2023-02-14T22:19:16.861Z,54.97
2023-02-14T22:21:45.303Z,54.96
2023-02-14T22:24:14.112Z,54.99
2023-02-14T22:26:42.509Z,55.06
2023-02-14T22:29:13.649Z,55.26
2023-02-14T22:31:45.437Z,55.26
2023-02-14T22:34:17.831Z,55.25
2023-02-14T22:36:46.175Z,55.24
2023-02-14T22:39:16.283Z,55.03
2023-02-14T22:41:44.974Z,55.01
2023-02-14T22:44:14.549Z,55.01
2023-02-14T22:46:43.474Z,54.78
2023-02-14T22:49:14.401Z,54.99
2023-02-14T22:51:45.004Z,55.07
2023-02-14T22:54:15.294Z,55.00
2023-02-14T22:56:45.788Z,54.84
2023-02-14T22:59:19.809Z,54.71
2023-02-14T23:01:49.768Z,55.07
2023-02-14T23:04:22.608Z,54.96
2023-02-14T23:06:52.259Z,55.17
2023-02-14T23:09:21.305Z,54.96
2023-02-14T23:11:50.869Z,55.17
2023-02-14T23:14:37.446Z,55.26
2023-02-14T23:17:24.377Z,54.91
2023-02-14T23:20:11.742Z,55.27
2023-02-14T23:22:41.765Z,55.05
2023-02-14T23:25:12.507Z,55.20
2023-02-14T23:27:43.047Z,55.41
2023-02-14T23:30:14.424Z,55.39
2023-02-14T23:32:42.941Z,55.35
2023-02-14T23:35:12.640Z,55.22
2023-02-14T23:37:41.747Z,55.29
2023-02-14T23:40:11.207Z,55.40
2023-02-14T23:42:39.501Z,55.46
2023-02-14T23:45:26.663Z,55.53
2023-02-14T23:47:54.981Z,55.46
2023-02-14T23:50:24.637Z,55.45
2023-02-14T23:52:52.885Z,55.36
2023-02-14T23:55:21.156Z,55.45
2023-02-14T23:57:49.451Z,55.82
